Sumpter, Arkansas
Current Conditions -  °F | °C
As of 8:53 AM on Saturday 20 Dec 2014 (Local Time) from KLLQ Reporting Station
Clear Clear  
Wind Chill: 36°   Ceiling: Unl
Heat Index: 41°   Visibility: 9mi
Dew Point: 37°   Wind: 7mph
Humidity: 86%   Direction: 70°ENE
Pressure: 30.27"   Gusts: NA
Location:  33.37°N, 92.1129°W
Report Text: KLLQ 201453Z AUTO 07006KT 9SM CLR 05/03 A3027 RMK AO2 SLP250 T00500028 51012
Loading
Personal Weather Stations






























Interactive Weather Map New forecast layout! Learn more

10-Day Weather Forecast

Advertisements
Track Severe Weather on mobile